sensor_id;sensor_type;location;lat;lon;timestamp;pressure;altitude;pressure_sealevel;temperature;humidity
60170;BME280;46042;49.444;6.862;2023-04-24T00:01:10;97490.78;;;8.77;100.00
60170;BME280;46042;49.444;6.862;2023-04-24T00:03:37;97484.81;;;8.75;100.00
60170;BME280;46042;49.444;6.862;2023-04-24T00:06:05;97489.09;;;8.64;100.00
60170;BME280;46042;49.444;6.862;2023-04-24T00:08:37;97482.41;;;8.60;100.00
60170;BME280;46042;49.444;6.862;2023-04-24T00:11:04;97482.16;;;8.63;100.00
60170;BME280;46042;49.444;6.862;2023-04-24T00:13:31;97478.13;;;8.59;100.00
60170;BME280;46042;49.444;6.862;2023-04-24T00:15:58;97476.66;;;8.55;100.00
60170;BME280;46042;49.444;6.862;2023-04-24T00:18:25;97475.72;;;8.56;100.00
60170;BME280;46042;49.444;6.862;2023-04-24T00:20:52;97469.28;;;8.60;100.00
60170;BME280;46042;49.444;6.862;2023-04-24T00:23:19;97474.03;;;8.55;100.00
60170;BME280;46042;49.444;6.862;2023-04-24T00:25:45;97472.34;;;8.54;100.00
60170;BME280;46042;49.444;6.862;2023-04-24T00:28:12;97476.91;;;8.52;100.00
60170;BME280;46042;49.444;6.862;2023-04-24T00:30:39;97473.75;;;8.47;100.00
60170;BME280;46042;49.444;6.862;2023-04-24T00:33:06;97473.88;;;8.45;100.00
60170;BME280;46042;49.444;6.862;2023-04-24T00:35:32;97481.03;;;8.43;100.00
60170;BME280;46042;49.444;6.862;2023-04-24T00:37:59;97478.53;;;8.42;100.00
60170;BME280;46042;49.444;6.862;2023-04-24T00:40:27;97481.03;;;8.43;100.00
60170;BME280;46042;49.444;6.862;2023-04-24T00:42:53;97490.09;;;8.39;100.00
60170;BME280;46042;49.444;6.862;2023-04-24T00:45:20;97500.09;;;8.34;100.00
60170;BME280;46042;49.444;6.862;2023-04-24T00:47:48;97503.78;;;8.31;100.00
60170;BME280;46042;49.444;6.862;2023-04-24T00:50:16;97499.13;;;8.23;100.00
60170;BME280;46042;49.444;6.862;2023-04-24T00:52:43;97507.22;;;8.20;100.00
60170;BME280;46042;49.444;6.862;2023-04-24T00:55:09;97513.84;;;8.13;100.00
60170;BME280;46042;49.444;6.862;2023-04-24T00:57:37;97511.97;;;8.15;100.00
60170;BME280;46042;49.444;6.862;2023-04-24T01:00:05;97500.16;;;8.09;100.00
60170;BME280;46042;49.444;6.862;2023-04-24T01:02:34;97503.09;;;8.05;100.00
60170;BME280;46042;49.444;6.862;2023-04-24T01:05:02;97506.59;;;8.05;100.00
60170;BME280;46042;49.444;6.862;2023-04-24T01:07:29;97501.66;;;8.01;100.00
60170;BME280;46042;49.444;6.862;2023-04-24T01:09:57;97503.97;;;8.05;100.00
60170;BME280;46042;49.444;6.862;2023-04-24T01:12:24;97506.06;;;8.00;100.00
60170;BME280;46042;49.444;6.862;2023-04-24T01:14:51;97504.16;;;8.02;100.00
60170;BME280;46042;49.444;6.862;2023-04-24T01:17:18;97508.91;;;7.97;100.00
60170;BME280;46042;49.444;6.862;2023-04-24T01:19:44;97513.22;;;7.98;100.00
60170;BME280;46042;49.444;6.862;2023-04-24T01:22:16;97507.34;;;7.94;100.00
60170;BME280;46042;49.444;6.862;2023-04-24T01:24:43;97507.47;;;7.93;100.00
60170;BME280;46042;49.444;6.862;2023-04-24T01:27:10;97507.34;;;7.94;100.00
60170;BME280;46042;49.444;6.862;2023-04-24T01:29:37;97499.84;;;7.90;100.00
60170;BME280;46042;49.444;6.862;2023-04-24T01:32:04;97499.59;;;7.93;100.00
60170;BME280;46042;49.444;6.862;2023-04-24T01:34:32;97491.75;;;7.93;100.00
60170;BME280;46042;49.444;6.862;2023-04-24T01:36:59;97507.16;;;7.97;100.00
60170;BME280;46042;49.444;6.862;2023-04-24T01:39:26;97509.88;;;7.96;100.00
60170;BME280;46042;49.444;6.862;2023-04-24T01:41:57;97521.75;;;7.89;100.00
60170;BME280;46042;49.444;6.862;2023-04-24T01:44:24;97521.88;;;7.87;100.00
60170;BME280;46042;49.444;6.862;2023-04-24T01:46:51;97521.97;;;7.86;100.00
60170;BME280;46042;49.444;6.862;2023-04-24T01:49:18;97523.88;;;7.83;100.00
60170;BME280;46042;49.444;6.862;2023-04-24T01:51:44;97528.69;;;7.90;100.00
60170;BME280;46042;49.444;6.862;2023-04-24T01:54:12;97532.97;;;7.91;100.00
60170;BME280;46042;49.444;6.862;2023-04-24T01:56:43;97532.28;;;7.76;100.00
60170;BME280;46042;49.444;6.862;2023-04-24T01:59:12;97526.31;;;7.74;100.00
60170;BME280;46042;49.444;6.862;2023-04-24T02:01:39;97523.69;;;7.74;100.00
60170;BME280;46042;49.444;6.862;2023-04-24T02:04:09;97530.22;;;7.68;100.00
60170;BME280;46042;49.444;6.862;2023-04-24T02:06:36;97540.19;;;7.63;100.00
60170;BME280;46042;49.444;6.862;2023-04-24T02:09:03;97542.81;;;7.63;100.00
60170;BME280;46042;49.444;6.862;2023-04-24T02:11:30;97547.56;;;7.58;100.00
60170;BME280;46042;49.444;6.862;2023-04-24T02:13:57;97557.41;;;7.54;100.00
60170;BME280;46042;49.444;6.862;2023-04-24T02:16:24;97565.06;;;7.57;100.00
60170;BME280;46042;49.444;6.862;2023-04-24T02:18:51;97566.56;;;7.48;100.00
60170;BME280;46042;49.444;6.862;2023-04-24T02:21:17;97573.81;;;7.45;100.00
60170;BME280;46042;49.444;6.862;2023-04-24T02:23:44;97574.66;;;7.32;100.00
60170;BME280;46042;49.444;6.862;2023-04-24T02:26:11;97573.94;;;7.30;100.00
60170;BME280;46042;49.444;6.862;2023-04-24T02:28:37;97579.06;;;7.32;100.00
60170;BME280;46042;49.444;6.862;2023-04-24T02:31:04;97579.72;;;7.22;100.00
60170;BME280;46042;49.444;6.862;2023-04-24T02:33:34;97580.44;;;7.24;100.00
60170;BME280;46042;49.444;6.862;2023-04-24T02:36:03;97572.78;;;7.08;100.00
60170;BME280;46042;49.444;6.862;2023-04-24T02:38:30;97582.00;;;7.14;100.00
60170;BME280;46042;49.444;6.862;2023-04-24T02:40:58;97575.72;;;7.17;100.00
60170;BME280;46042;49.444;6.862;2023-04-24T02:43:25;97580.47;;;7.11;100.00
60170;BME280;46042;49.444;6.862;2023-04-24T02:45:52;97573.94;;;7.17;100.00
60170;BME280;46042;49.444;6.862;2023-04-24T02:48:18;97578.38;;;7.04;100.00
60170;BME280;46042;49.444;6.862;2023-04-24T02:50:47;97567.03;;;7.03;100.00
60170;BME280;46042;49.444;6.862;2023-04-24T02:53:14;97571.97;;;7.08;100.00
60170;BME280;46042;49.444;6.862;2023-04-24T02:55:41;97582.66;;;7.05;100.00
60170;BME280;46042;49.444;6.862;2023-04-24T02:58:07;97584.63;;;7.01;100.00
60170;BME280;46042;49.444;6.862;2023-04-24T03:00:34;97579.19;;;7.04;100.00
60170;BME280;46042;49.444;6.862;2023-04-24T03:03:01;97583.56;;;6.91;100.00
60170;BME280;46042;49.444;6.862;2023-04-24T03:05:28;97585.88;;;6.95;100.00
60170;BME280;46042;49.444;6.862;2023-04-24T03:07:54;97577.72;;;6.87;100.00
60170;BME280;46042;49.444;6.862;2023-04-24T03:10:21;97578.88;;;6.96;100.00
60170;BME280;46042;49.444;6.862;2023-04-24T03:12:49;97579.06;;;6.93;100.00
60170;BME280;46042;49.444;6.862;2023-04-24T03:15:16;97594.16;;;7.02;100.00
60170;BME280;46042;49.444;6.862;2023-04-24T03:17:43;97593.88;;;6.94;100.00
60170;BME280;46042;49.444;6.862;2023-04-24T03:20:10;97589.75;;;6.90;100.00
60170;BME280;46042;49.444;6.862;2023-04-24T03:22:38;97593.44;;;6.87;100.00
60170;BME280;46042;49.444;6.862;2023-04-24T03:25:06;97593.09;;;6.92;100.00
60170;BME280;46042;49.444;6.862;2023-04-24T03:27:34;97604.44;;;6.92;100.00
60170;BME280;46042;49.444;6.862;2023-04-24T03:30:08;97614.25;;;6.89;100.00
60170;BME280;46042;49.444;6.862;2023-04-24T03:32:35;97612.59;;;6.88;100.00
60170;BME280;46042;49.444;6.862;2023-04-24T03:35:01;97614.16;;;6.90;100.00
60170;BME280;46042;49.444;6.862;2023-04-24T03:37:29;97620.44;;;6.88;100.00
60170;BME280;46042;49.444;6.862;2023-04-24T03:39:55;97609.88;;;6.76;100.00
60170;BME280;46042;49.444;6.862;2023-04-24T03:42:25;97608.81;;;6.79;100.00
60170;BME280;46042;49.444;6.862;2023-04-24T03:44:51;97618.25;;;6.81;100.00
60170;BME280;46042;49.444;6.862;2023-04-24T03:47:19;97621.25;;;6.75;100.00
60170;BME280;46042;49.444;6.862;2023-04-24T03:49:46;97611.94;;;6.84;100.00
60170;BME280;46042;49.444;6.862;2023-04-24T03:52:13;97616.38;;;6.83;100.00
60170;BME280;46042;49.444;6.862;2023-04-24T03:54:42;97603.69;;;6.77;100.00
60170;BME280;46042;49.444;6.862;2023-04-24T03:57:09;97611.63;;;6.76;100.00
60170;BME280;46042;49.444;6.862;2023-04-24T03:59:35;97609.75;;;6.78;100.00
60170;BME280;46042;49.444;6.862;2023-04-24T04:02:02;97621.06;;;6.78;100.00
60170;BME280;46042;49.444;6.862;2023-04-24T04:04:30;97612.50;;;6.76;100.00
60170;BME280;46042;49.444;6.862;2023-04-24T04:06:57;97613.22;;;6.78;100.00
60170;BME280;46042;49.444;6.862;2023-04-24T04:09:29;97617.50;;;6.79;100.00
60170;BME280;46042;49.444;6.862;2023-04-24T04:11:55;97627.97;;;6.79;100.00
60170;BME280;46042;49.444;6.862;2023-04-24T04:14:22;97624.63;;;6.77;100.00
60170;BME280;46042;49.444;6.862;2023-04-24T04:16:49;97629.09;;;6.75;100.00
60170;BME280;46042;49.444;6.862;2023-04-24T04:19:19;97627.25;;;6.77;100.00
60170;BME280;46042;49.444;6.862;2023-04-24T04:21:46;97625.88;;;6.72;100.00
60170;BME280;46042;49.444;6.862;2023-04-24T04:24:19;97626.75;;;6.85;100.00
60170;BME280;46042;49.444;6.862;2023-04-24T04:26:48;97636.56;;;6.81;100.00
60170;BME280;46042;49.444;6.862;2023-04-24T04:29:18;97634.78;;;6.82;100.00
60170;BME280;46042;49.444;6.862;2023-04-24T04:31:45;97633.53;;;6.75;100.00
60170;BME280;46042;49.444;6.862;2023-04-24T04:34:12;97638.22;;;6.69;100.00
60170;BME280;46042;49.444;6.862;2023-04-24T04:36:41;97642.41;;;6.72;100.00
60170;BME280;46042;49.444;6.862;2023-04-24T04:39:09;97652.56;;;6.64;100.00
60170;BME280;46042;49.444;6.862;2023-04-24T04:41:36;97643.31;;;6.58;100.00
60170;BME280;46042;49.444;6.862;2023-04-24T04:44:04;97649.94;;;6.64;100.00
60170;BME280;46042;49.444;6.862;2023-04-24T04:46:31;97655.16;;;6.64;100.00
60170;BME280;46042;49.444;6.862;2023-04-24T04:49:03;97654.88;;;6.68;100.00
60170;BME280;46042;49.444;6.862;2023-04-24T04:51:34;97654.66;;;6.72;100.00
60170;BME280;46042;49.444;6.862;2023-04-24T04:54:06;97661.97;;;6.66;100.00
60170;BME280;46042;49.444;6.862;2023-04-24T05:15:32;97689.94;;;6.79;100.00
60170;BME280;46042;49.444;6.862;2023-04-24T05:18:07;97690.91;;;6.78;100.00
60170;BME280;46042;49.444;6.862;2023-04-24T05:20:35;97701.28;;;6.79;100.00
60170;BME280;46042;49.444;6.862;2023-04-24T05:23:06;97696.66;;;6.83;100.00
60170;BME280;46042;49.444;6.862;2023-04-24T05:25:33;97708.63;;;6.87;100.00
60170;BME280;46042;49.444;6.862;2023-04-24T05:28:04;97710.91;;;6.79;100.00
60170;BME280;46042;49.444;6.862;2023-04-24T05:30:34;97713.88;;;6.87;100.00
60170;BME280;46042;49.444;6.862;2023-04-24T05:33:01;97714.81;;;6.86;100.00
60170;BME280;46042;49.444;6.862;2023-04-24T05:35:28;97718.75;;;6.79;100.00
60170;BME280;46042;49.444;6.862;2023-04-24T05:37:54;97723.03;;;6.80;100.00
60170;BME280;46042;49.444;6.862;2023-04-24T05:40:21;97731.47;;;6.85;100.00
60170;BME280;46042;49.444;6.862;2023-04-24T05:42:48;97735.75;;;6.86;100.00
60170;BME280;46042;49.444;6.862;2023-04-24T05:45:18;97736.53;;;6.74;100.00
60170;BME280;46042;49.444;6.862;2023-04-24T05:47:46;97743.53;;;6.73;100.00
60170;BME280;46042;49.444;6.862;2023-04-24T05:50:13;97747.22;;;6.71;100.00
60170;BME280;46042;49.444;6.862;2023-04-24T05:52:40;97748.25;;;6.68;100.00
60170;BME280;46042;49.444;6.862;2023-04-24T05:55:07;97757.03;;;6.67;100.00
60170;BME280;46042;49.444;6.862;2023-04-24T05:57:34;97758.78;;;6.66;100.00
60170;BME280;46042;49.444;6.862;2023-04-24T06:00:00;97752.13;;;6.75;100.00
60170;BME280;46042;49.444;6.862;2023-04-24T06:02:27;97757.84;;;6.67;100.00
60170;BME280;46042;49.444;6.862;2023-04-24T06:04:55;97756.38;;;6.63;100.00
60170;BME280;46042;49.444;6.862;2023-04-24T06:07:22;97764.69;;;6.70;100.00
60170;BME280;46042;49.444;6.862;2023-04-24T06:09:48;97775.81;;;6.74;100.00
60170;BME280;46042;49.444;6.862;2023-04-24T06:12:15;97763.53;;;6.74;100.00
60170;BME280;46042;49.444;6.862;2023-04-24T06:14:42;97765.97;;;6.77;100.00
60170;BME280;46042;49.444;6.862;2023-04-24T06:17:10;97774.84;;;6.75;100.00
60170;BME280;46042;49.444;6.862;2023-04-24T06:19:38;97778.31;;;6.75;100.00
60170;BME280;46042;49.444;6.862;2023-04-24T06:22:05;97776.38;;;6.64;100.00
60170;BME280;46042;49.444;6.862;2023-04-24T06:24:34;97774.97;;;6.59;100.00
60170;BME280;46042;49.444;6.862;2023-04-24T06:27:01;97778.16;;;6.64;100.00
60170;BME280;46042;49.444;6.862;2023-04-24T06:29:27;97795.75;;;6.62;100.00
60170;BME280;46042;49.444;6.862;2023-04-24T06:31:54;97795.81;;;6.75;100.00
60170;BME280;46042;49.444;6.862;2023-04-24T06:34:21;97801.78;;;6.77;100.00
60170;BME280;46042;49.444;6.862;2023-04-24T06:36:47;97801.31;;;6.70;100.00
60170;BME280;46042;49.444;6.862;2023-04-24T06:39:14;97802.47;;;6.66;100.00
60170;BME280;46042;49.444;6.862;2023-04-24T06:41:41;97805.41;;;6.74;100.00
60170;BME280;46042;49.444;6.862;2023-04-24T06:44:07;97799.34;;;6.74;100.00
60170;BME280;46042;49.444;6.862;2023-04-24T06:46:34;97798.81;;;6.68;100.00
60170;BME280;46042;49.444;6.862;2023-04-24T06:49:00;97803.28;;;6.66;100.00
60170;BME280;46042;49.444;6.862;2023-04-24T06:51:27;97797.63;;;6.60;100.00
60170;BME280;46042;49.444;6.862;2023-04-24T06:53:54;97803.19;;;6.68;100.00
60170;BME280;46042;49.444;6.862;2023-04-24T06:56:22;97802.19;;;6.71;100.00
60170;BME280;46042;49.444;6.862;2023-04-24T06:58:50;97795.41;;;6.81;100.00
60170;BME280;46042;49.444;6.862;2023-04-24T07:01:17;97800.53;;;6.82;100.00
60170;BME280;46042;49.444;6.862;2023-04-24T07:03:45;97814.38;;;6.85;100.00
60170;BME280;46042;49.444;6.862;2023-04-24T07:06:12;97816.75;;;6.75;100.00
60170;BME280;46042;49.444;6.862;2023-04-24T07:08:39;97809.63;;;6.77;100.00
60170;BME280;46042;49.444;6.862;2023-04-24T07:11:08;97821.53;;;6.68;100.00
60170;BME280;46042;49.444;6.862;2023-04-24T07:13:34;97823.84;;;6.73;100.00
60170;BME280;46042;49.444;6.862;2023-04-24T07:16:02;97815.81;;;6.76;100.00
60170;BME280;46042;49.444;6.862;2023-04-24T07:18:28;97818.75;;;6.84;100.00
60170;BME280;46042;49.444;6.862;2023-04-24T07:20:57;97817.31;;;6.93;100.00
60170;BME280;46042;49.444;6.862;2023-04-24T07:23:25;97821.09;;;6.89;100.00
60170;BME280;46042;49.444;6.862;2023-04-24T07:25:51;97818.41;;;7.03;100.00
60170;BME280;46042;49.444;6.862;2023-04-24T07:28:20;97826.22;;;6.90;100.00
60170;BME280;46042;49.444;6.862;2023-04-24T07:30:47;97829.78;;;6.89;100.00
60170;BME280;46042;49.444;6.862;2023-04-24T07:33:13;97823.25;;;6.82;100.00
60170;BME280;46042;49.444;6.862;2023-04-24T07:35:40;97830.16;;;6.83;100.00
60170;BME280;46042;49.444;6.862;2023-04-24T07:38:07;97837.94;;;6.85;100.00
60170;BME280;46042;49.444;6.862;2023-04-24T07:40:33;97825.03;;;6.81;100.00
60170;BME280;46042;49.444;6.862;2023-04-24T07:43:00;97835.66;;;6.93;100.00
60170;BME280;46042;49.444;6.862;2023-04-24T07:45:26;97836.25;;;6.83;100.00
60170;BME280;46042;49.444;6.862;2023-04-24T07:47:54;97832.91;;;6.81;100.00
60170;BME280;46042;49.444;6.862;2023-04-24T07:50:21;97845.78;;;6.85;100.00
60170;BME280;46042;49.444;6.862;2023-04-24T07:52:48;97844.31;;;6.80;100.00
60170;BME280;46042;49.444;6.862;2023-04-24T07:55:15;97852.69;;;6.86;100.00
60170;BME280;46042;49.444;6.862;2023-04-24T07:57:45;97851.50;;;6.77;100.00
60170;BME280;46042;49.444;6.862;2023-04-24T08:00:12;97856.34;;;6.83;100.00
60170;BME280;46042;49.444;6.862;2023-04-24T08:02:39;97852.91;;;6.82;100.00
60170;BME280;46042;49.444;6.862;2023-04-24T08:05:08;97859.63;;;6.87;100.00
60170;BME280;46042;49.444;6.862;2023-04-24T08:07:35;97858.94;;;6.97;100.00
60170;BME280;46042;49.444;6.862;2023-04-24T08:10:02;97858.72;;;7.01;100.00
60170;BME280;46042;49.444;6.862;2023-04-24T08:12:29;97871.75;;;7.02;100.00
60170;BME280;46042;49.444;6.862;2023-04-24T08:14:56;97871.00;;;7.00;100.00
60170;BME280;46042;49.444;6.862;2023-04-24T08:17:25;97873.22;;;7.06;100.00
60170;BME280;46042;49.444;6.862;2023-04-24T08:19:54;97880.34;;;7.04;100.00
60170;BME280;46042;49.444;6.862;2023-04-24T08:22:28;97880.97;;;7.08;100.00
60170;BME280;46042;49.444;6.862;2023-04-24T08:24:56;97885.63;;;7.17;100.00
60170;BME280;46042;49.444;6.862;2023-04-24T08:27:23;97884.78;;;7.17;100.00
60170;BME280;46042;49.444;6.862;2023-04-24T08:29:52;97890.56;;;7.22;100.00
60170;BME280;46042;49.444;6.862;2023-04-24T08:32:19;97892.44;;;7.20;100.00
60170;BME280;46042;49.444;6.862;2023-04-24T08:34:48;97889.00;;;7.19;100.00
60170;BME280;46042;49.444;6.862;2023-04-24T08:37:15;97892.84;;;7.14;100.00
60170;BME280;46042;49.444;6.862;2023-04-24T08:39:43;97899.41;;;7.06;100.00
60170;BME280;46042;49.444;6.862;2023-04-24T08:42:12;97894.91;;;7.08;100.00
60170;BME280;46042;49.444;6.862;2023-04-24T08:44:39;97902.97;;;7.05;100.00
60170;BME280;46042;49.444;6.862;2023-04-24T08:47:07;97906.31;;;7.07;100.00
60170;BME280;46042;49.444;6.862;2023-04-24T08:49:35;97909.38;;;7.14;100.00
60170;BME280;46042;49.444;6.862;2023-04-24T08:52:02;97918.47;;;7.08;100.00
60170;BME280;46042;49.444;6.862;2023-04-24T08:54:34;97921.47;;;7.17;100.00
60170;BME280;46042;49.444;6.862;2023-04-24T08:57:03;97921.66;;;7.14;100.00
60170;BME280;46042;49.444;6.862;2023-04-24T08:59:33;97931.81;;;7.18;100.00
60170;BME280;46042;49.444;6.862;2023-04-24T09:02:03;97926.50;;;7.20;100.00
60170;BME280;46042;49.444;6.862;2023-04-24T09:04:33;97933.09;;;7.13;100.00
60170;BME280;46042;49.444;6.862;2023-04-24T09:07:02;97938.66;;;7.21;100.00
60170;BME280;46042;49.444;6.862;2023-04-24T09:09:30;97933.41;;;7.21;100.00
60170;BME280;46042;49.444;6.862;2023-04-24T09:12:00;97946.44;;;7.22;100.00
60170;BME280;46042;49.444;6.862;2023-04-24T09:14:28;97940.72;;;7.30;100.00
60170;BME280;46042;49.444;6.862;2023-04-24T09:16:55;97943.13;;;7.33;100.00
60170;BME280;46042;49.444;6.862;2023-04-24T09:19:21;97944.88;;;7.33;100.00
60170;BME280;46042;49.444;6.862;2023-04-24T09:21:49;97932.09;;;7.28;100.00
60170;BME280;46042;49.444;6.862;2023-04-24T09:24:20;97935.84;;;7.24;100.00
60170;BME280;46042;49.444;6.862;2023-04-24T09:26:56;97939.13;;;7.28;100.00
60170;BME280;46042;49.444;6.862;2023-04-24T09:29:28;97942.59;;;7.28;100.00
60170;BME280;46042;49.444;6.862;2023-04-24T09:31:55;97947.59;;;7.46;100.00
60170;BME280;46042;49.444;6.862;2023-04-24T09:34:26;97945.09;;;7.57;100.00
60170;BME280;46042;49.444;6.862;2023-04-24T09:36:53;97944.22;;;7.71;100.00
60170;BME280;46042;49.444;6.862;2023-04-24T09:39:20;97960.50;;;7.89;100.00
60170;BME280;46042;49.444;6.862;2023-04-24T09:41:53;97948.78;;;8.08;100.00
60170;BME280;46042;49.444;6.862;2023-04-24T09:44:21;97945.88;;;8.38;100.00
60170;BME280;46042;49.444;6.862;2023-04-24T09:46:57;97945.34;;;8.85;100.00
60170;BME280;46042;49.444;6.862;2023-04-24T09:54:30;97942.28;;;10.02;100.00
60170;BME280;46042;49.444;6.862;2023-04-24T09:56:57;97954.75;;;10.70;100.00
60170;BME280;46042;49.444;6.862;2023-04-24T09:59:26;97935.84;;;10.06;99.04
60170;BME280;46042;49.444;6.862;2023-04-24T10:01:55;97956.69;;;9.85;97.87
60170;BME280;46042;49.444;6.862;2023-04-24T10:04:24;97951.28;;;10.58;96.45
60170;BME280;46042;49.444;6.862;2023-04-24T10:06:53;97944.75;;;11.30;98.90
60170;BME280;46042;49.444;6.862;2023-04-24T10:09:23;97955.19;;;11.20;96.03
60170;BME280;46042;49.444;6.862;2023-04-24T10:11:53;97968.16;;;10.66;91.22
60170;BME280;46042;49.444;6.862;2023-04-24T10:14:21;97968.56;;;10.37;93.96
60170;BME280;46042;49.444;6.862;2023-04-24T10:16:50;97967.69;;;9.90;95.42
60170;BME280;46042;49.444;6.862;2023-04-24T10:19:19;97966.75;;;9.66;97.65
60170;BME280;46042;49.444;6.862;2023-04-24T10:21:46;97981.53;;;9.56;97.53
60170;BME280;46042;49.444;6.862;2023-04-24T10:24:15;97985.81;;;9.33;96.28
60170;BME280;46042;49.444;6.862;2023-04-24T10:26:44;97975.94;;;9.23;99.53
60170;BME280;46042;49.444;6.862;2023-04-24T10:29:17;97991.88;;;9.09;98.81
60170;BME280;46042;49.444;6.862;2023-04-24T10:31:45;97990.41;;;8.92;99.40
60170;BME280;46042;49.444;6.862;2023-04-24T10:34:15;97995.25;;;8.85;98.95
60170;BME280;46042;49.444;6.862;2023-04-24T10:36:46;98003.25;;;8.84;100.00
60170;BME280;46042;49.444;6.862;2023-04-24T10:39:15;98004.19;;;8.82;100.00
60170;BME280;46042;49.444;6.862;2023-04-24T10:41:43;98003.56;;;8.79;100.00
60170;BME280;46042;49.444;6.862;2023-04-24T10:44:16;98009.53;;;8.94;99.58
60170;BME280;46042;49.444;6.862;2023-04-24T10:46:45;98008.78;;;9.05;99.74
60170;BME280;46042;49.444;6.862;2023-04-24T10:49:12;98008.25;;;9.25;99.46
60170;BME280;46042;49.444;6.862;2023-04-24T10:54:28;98024.75;;;9.65;99.75
60170;BME280;46042;49.444;6.862;2023-04-24T10:59:51;98021.44;;;10.70;94.75
60170;BME280;46042;49.444;6.862;2023-04-24T11:02:18;98029.97;;;10.38;93.74
60170;BME280;46042;49.444;6.862;2023-04-24T11:05:05;98035.16;;;10.51;96.51
60170;BME280;46042;49.444;6.862;2023-04-24T11:08:10;98035.66;;;10.32;94.77
60170;BME280;46042;49.444;6.862;2023-04-24T11:10:54;98039.19;;;10.08;93.61
60170;BME280;46042;49.444;6.862;2023-04-24T11:13:22;98050.44;;;9.86;92.84
60170;BME280;46042;49.444;6.862;2023-04-24T11:16:12;98052.13;;;9.49;93.12
60170;BME280;46042;49.444;6.862;2023-04-24T11:18:39;98041.59;;;9.49;95.13
60170;BME280;46042;49.444;6.862;2023-04-24T11:21:11;98051.47;;;9.59;96.57
60170;BME280;46042;49.444;6.862;2023-04-24T11:23:39;98045.09;;;9.74;97.36
60170;BME280;46042;49.444;6.862;2023-04-24T11:26:11;98052.38;;;9.71;94.37
60170;BME280;46042;49.444;6.862;2023-04-24T11:28:47;98055.13;;;9.69;94.59
60170;BME280;46042;49.444;6.862;2023-04-24T11:31:37;98055.63;;;9.74;94.18
60170;BME280;46042;49.444;6.862;2023-04-24T11:34:09;98047.72;;;9.74;90.00
60170;BME280;46042;49.444;6.862;2023-04-24T11:36:36;98050.25;;;10.00;96.12
60170;BME280;46042;49.444;6.862;2023-04-24T11:39:03;98045.50;;;10.05;94.81
60170;BME280;46042;49.444;6.862;2023-04-24T11:41:33;98033.13;;;9.94;94.33
60170;BME280;46042;49.444;6.862;2023-04-24T11:44:00;98045.56;;;9.92;95.88
60170;BME280;46042;49.444;6.862;2023-04-24T11:46:28;98042.56;;;9.48;96.27
60170;BME280;46042;49.444;6.862;2023-04-24T11:48:56;98052.75;;;9.40;99.81
60170;BME280;46042;49.444;6.862;2023-04-24T11:51:25;98050.91;;;9.42;100.00
60170;BME280;46042;49.444;6.862;2023-04-24T11:54:07;98059.00;;;9.76;100.00
60170;BME280;46042;49.444;6.862;2023-04-24T11:56:34;98044.38;;;9.96;100.00
60170;BME280;46042;49.444;6.862;2023-04-24T11:59:04;98046.13;;;10.09;100.00
60170;BME280;46042;49.444;6.862;2023-04-24T12:01:42;98047.22;;;10.18;100.00
60170;BME280;46042;49.444;6.862;2023-04-24T12:04:09;98046.91;;;10.47;100.00
60170;BME280;46042;49.444;6.862;2023-04-24T12:06:36;98046.59;;;10.74;100.00
60170;BME280;46042;49.444;6.862;2023-04-24T12:09:04;98040.81;;;10.69;97.12
60170;BME280;46042;49.444;6.862;2023-04-24T12:11:55;98049.78;;;10.55;96.65
60170;BME280;46042;49.444;6.862;2023-04-24T12:14:23;98058.19;;;10.36;94.93
60170;BME280;46042;49.444;6.862;2023-04-24T12:16:51;98069.31;;;10.04;94.35
60170;BME280;46042;49.444;6.862;2023-04-24T12:19:22;98050.88;;;10.28;93.98
60170;BME280;46042;49.444;6.862;2023-04-24T12:22:03;98053.59;;;10.51;94.24
60170;BME280;46042;49.444;6.862;2023-04-24T12:24:34;98058.47;;;10.80;93.46
60170;BME280;46042;49.444;6.862;2023-04-24T12:27:01;98067.19;;;10.80;93.81
60170;BME280;46042;49.444;6.862;2023-04-24T12:29:28;98070.66;;;10.70;90.09
60170;BME280;46042;49.444;6.862;2023-04-24T12:31:55;98067.78;;;10.73;88.14
60170;BME280;46042;49.444;6.862;2023-04-24T12:34:23;98058.72;;;11.45;84.68
60170;BME280;46042;49.444;6.862;2023-04-24T12:36:51;98043.34;;;12.17;82.91
60170;BME280;46042;49.444;6.862;2023-04-24T12:39:19;98050.31;;;12.82;85.49
60170;BME280;46042;49.444;6.862;2023-04-24T12:41:56;98050.41;;;12.71;82.89
60170;BME280;46042;49.444;6.862;2023-04-24T12:44:34;98049.88;;;12.56;86.89
60170;BME280;46042;49.444;6.862;2023-04-24T12:47:02;98055.28;;;11.89;80.72
60170;BME280;46042;49.444;6.862;2023-04-24T12:49:32;98062.41;;;11.65;83.55
60170;BME280;46042;49.444;6.862;2023-04-24T12:51:59;98058.47;;;11.03;83.97
60170;BME280;46042;49.444;6.862;2023-04-24T12:54:25;98064.59;;;10.92;89.53
60170;BME280;46042;49.444;6.862;2023-04-24T12:56:52;98066.94;;;10.72;92.60
60170;BME280;46042;49.444;6.862;2023-04-24T12:59:21;98073.53;;;10.66;95.78
60170;BME280;46042;49.444;6.862;2023-04-24T13:01:47;98065.97;;;10.62;95.12
60170;BME280;46042;49.444;6.862;2023-04-24T13:04:15;98062.47;;;10.50;96.39
60170;BME280;46042;49.444;6.862;2023-04-24T13:06:43;98073.44;;;10.19;97.21
60170;BME280;46042;49.444;6.862;2023-04-24T13:09:10;98061.22;;;10.18;97.36
60170;BME280;46042;49.444;6.862;2023-04-24T13:11:37;98066.66;;;10.28;97.60
60170;BME280;46042;49.444;6.862;2023-04-24T13:14:03;98061.13;;;10.44;97.04
60170;BME280;46042;49.444;6.862;2023-04-24T13:16:30;98068.72;;;10.72;94.92
60170;BME280;46042;49.444;6.862;2023-04-24T13:18:57;98057.63;;;10.91;92.98
60170;BME280;46042;49.444;6.862;2023-04-24T13:21:23;98057.47;;;11.72;97.50
60170;BME280;46042;49.444;6.862;2023-04-24T13:23:50;98062.50;;;11.87;93.54
60170;BME280;46042;49.444;6.862;2023-04-24T13:26:18;98052.00;;;12.41;90.60
60170;BME280;46042;49.444;6.862;2023-04-24T13:28:45;98054.22;;;13.09;89.60
60170;BME280;46042;49.444;6.862;2023-04-24T13:31:12;98044.81;;;13.47;81.01
60170;BME280;46042;49.444;6.862;2023-04-24T13:33:40;98052.41;;;13.41;77.76
60170;BME280;46042;49.444;6.862;2023-04-24T13:36:07;98049.34;;;13.76;80.21